Date,TemperatureHighF,TemperatureAvgF,TemperatureLowF,DewpointHighF,DewpointAvgF,DewpointLowF,HumidityHigh,HumidityAvg,HumidityLow,PressureMaxIn,PressureMinIn,WindSpeedMaxMPH,WindSpeedAvgMPH,GustSpeedMaxMPH,PrecipitationSumIn
2013-1-1,16.0,9.0,3.0,12.0,5.1,1.0,91,83,71,0.00,40.00,11,5,14,0.00
2013-1-2,29.0,17.0,2.0,24.0,13.3,0.0,95,85,68,0.00,40.00,12,4,17,0.00
2013-1-3,28.0,20.1,8.0,28.0,18.0,6.0,99,91,83,0.00,40.00,17,10,24,0.00
2013-1-4,34.0,20.0,8.0,27.0,17.9,7.0,99,91,77,0.00,40.00,18,9,24,0.00
2013-1-5,36.0,28.4,17.0,35.0,27.5,17.0,99,96,80,0.00,40.00,23,8,30,0.00
2013-1-6,27.0,18.4,13.0,24.0,16.7,12.0,99,93,77,0.00,40.00,21,10,28,0.00
2013-1-7,39.0,28.2,14.0,29.0,23.2,14.0,99,82,60,0.00,40.00,21,9,28,0.00
2013-1-8,42.0,35.2,28.0,33.0,30.3,27.0,93,82,69,0.00,40.00,16,7,21,0.00
2013-1-9,40.0,32.8,27.0,35.0,30.7,26.0,99,91,75,0.00,40.00,19,8,27,0.00
2013-1-10,39.0,32.7,24.0,37.0,30.4,24.0,99,91,67,0.00,40.00,16,8,23,0.40
2013-1-11,53.0,44.3,36.0,50.0,43.2,36.0,99,96,82,0.00,40.00,19,-5,28,0.00
2013-1-12,51.0,32.4,19.0,47.0,28.4,17.0,97,84,73,0.00,40.00,25,14,34,0.15
2013-1-13,20.0,14.5,10.0,18.0,10.2,8.0,93,82,76,0.00,40.00,18,11,26,0.00
2013-1-14,27.0,14.6,5.0,14.0,9.2,4.0,94,79,54,0.00,40.00,9,4,14,0.00
2013-1-15,31.0,18.7,7.0,18.0,12.3,6.0,97,78,50,0.00,40.00,8,-4,11,0.00
2013-1-16,37.0,27.0,13.0,35.0,22.2,11.0,99,82,63,0.00,40.00,19,8,27,0.00
2013-1-17,34.0,24.8,16.0,33.0,17.8,11.0,98,76,46,0.00,40.00,14,7,19,0.00
2013-1-18,46.0,35.6,21.0,34.0,28.3,19.0,93,75,59,0.00,40.00,25,12,36,0.00
2013-1-19,51.0,39.1,19.0,37.0,31.5,10.0,84,74,54,0.00,40.00,28,14,45,0.00
2013-1-20,19.0,12.9,8.0,11.0,6.5,3.0,85,75,67,0.00,40.00,28,13,37,0.00
2013-1-21,12.0,5.8,0.0,8.0,-0.8,-6.0,85,74,61,0.00,40.00,21,15,34,0.01
2013-1-22,12.0,5.7,-4.0,3.0,-1.1,-7.0,88,73,62,0.00,40.00,14,8,20,0.00
2013-1-23,27.0,17.0,10.0,15.0,8.4,1.0,76,68,60,0.00,40.00,19,9,27,0.00
2013-1-24,21.0,11.7,3.0,11.0,1.9,-4.0,72,64,51,0.00,40.00,19,8,24,0.00
2013-1-25,34.0,23.4,14.0,21.0,14.5,7.0,92,69,51,0.00,40.00,22,10,33,0.00
2013-1-26,30.0,18.9,5.0,16.0,10.4,3.0,94,70,49,0.00,40.00,11,5,15,0.00
2013-1-27,39.0,30.7,27.0,38.0,26.5,16.0,99,85,62,0.00,40.00,12,7,18,0.21
2013-1-28,47.0,40.1,35.0,47.0,40.0,35.0,99,99,99,0.00,40.00,14,8,20,0.07
2013-1-29,59.0,48.6,35.0,59.0,48.5,35.0,99,99,99,0.00,40.00,21,9,30,1.01
2013-1-30,35.0,26.5,14.0,35.0,25.9,11.0,99,97,87,0.00,40.00,24,15,33,0.57
2013-1-31,14.0,5.3,-1.0,11.0,0.4,-6.0,89,79,73,0.00,40.00,22,18,31,0.00
2013-2-1,17.0,3.5,-5.0,13.0,-2.5,-10.0,87,76,67,0.00,40.00,21,10,24,0.00
2013-2-2,24.0,17.5,11.0,23.0,13.7,8.0,96,85,69,0.00,40.00,17,8,26,0.04
2013-2-3,22.0,18.9,15.0,20.0,15.3,11.0,99,85,71,0.00,40.00,21,9,29,0.01
2013-2-4,26.0,21.3,11.0,22.0,17.6,9.0,95,85,74,0.00,40.00,16,7,21,0.00
2013-2-5,33.0,25.5,13.0,31.0,23.3,11.0,97,91,78,0.00,40.00,18,8,26,0.04
2013-2-6,42.0,31.0,15.0,34.0,26.9,15.0,99,85,66,0.00,40.00,11,5,16,0.00
2013-2-7,37.0,34.3,31.0,36.0,34.1,29.0,99,99,88,0.00,40.00,15,6,21,0.54
2013-2-8,31.0,27.6,26.0,30.0,24.4,22.0,96,87,82,0.00,40.00,17,7,22,0.00
2013-2-9,36.0,28.9,25.0,30.0,26.6,22.0,99,91,77,0.00,40.00,18,9,26,0.00
2013-2-10,48.0,38.8,30.0,48.0,37.4,30.0,99,95,64,0.00,40.00,30,13,47,0.24
2013-2-11,35.0,30.6,26.0,33.0,25.3,21.0,90,80,75,0.00,40.00,32,23,46,0.00
2013-2-12,35.0,28.5,23.0,28.0,23.4,20.0,94,81,69,0.00,40.00,18,9,23,0.00
2013-2-13,42.0,33.4,23.0,33.0,29.7,23.0,99,86,66,0.00,40.00,12,6,17,0.00
2013-2-14,40.0,35.2,27.0,34.0,31.1,27.0,99,85,60,0.00,40.00,22,12,33,0.01
2013-2-15,29.0,22.5,16.0,27.0,14.9,8.0,99,72,48,0.00,40.00,18,10,25,0.00
2013-2-16,22.0,16.3,11.0,14.0,11.3,8.0,94,80,67,0.00,40.00,14,7,21,0.00
2013-2-17,36.0,23.8,11.0,24.0,16.2,9.0,91,74,52,0.00,40.00,14,8,22,0.00
2013-2-18,57.0,35.2,17.0,45.0,30.6,14.0,99,84,54,0.00,40.00,30,14,39,0.36
2013-2-19,18.0,11.8,6.0,14.0,7.1,0.0,88,81,72,0.00,40.00,31,21,40,0.01
2013-2-20,25.0,13.3,3.0,16.0,7.7,0.0,90,77,66,0.00,40.00,11,6,19,0.00
2013-2-21,27.0,20.3,12.0,27.0,19.0,11.0,99,94,88,0.00,40.00,22,11,37,0.20
2013-2-22,33.0,26.5,23.0,31.0,25.6,21.0,99,96,88,0.00,40.00,16,10,22,0.05
2013-2-23,30.0,23.0,11.0,23.0,19.2,11.0,99,85,71,0.00,40.00,14,8,19,0.00
2013-2-24,37.0,23.2,6.0,25.0,19.1,6.0,99,85,60,0.00,40.00,7,3,11,0.00
2013-2-25,39.0,30.4,20.0,31.0,27.3,20.0,99,89,74,0.00,40.00,13,6,17,0.00
2013-2-26,35.0,32.2,30.0,31.0,30.0,28.0,99,91,77,0.00,40.00,27,16,36,0.72
2013-2-27,33.0,30.3,28.0,33.0,30.3,28.0,99,99,98,0.00,40.00,16,10,24,0.23
2013-2-28,36.0,32.0,29.0,31.0,30.0,29.0,99,91,76,0.00,40.00,13,7,17,0.05
2013-3-1,29.0,26.3,18.0,29.0,21.5,17.0,99,82,68,0.00,40.00,17,9,22,0.01
2013-3-2,29.0,19.7,12.0,19.0,13.9,11.0,96,79,53,0.00,40.00,11,6,16,0.00
2013-3-3,35.0,21.3,6.0,22.0,13.0,6.0,99,73,41,0.00,40.00,9,4,13,0.00
2013-3-4,32.0,27.4,24.0,27.0,22.6,15.0,97,82,67,0.00,40.00,24,13,32,0.03
2013-3-5,31.0,28.8,27.0,31.0,28.3,26.0,99,97,89,0.00,40.00,17,9,24,0.64
2013-3-6,29.0,25.6,21.0,26.0,22.5,19.0,96,88,77,0.00,40.00,15,8,21,0.00
2013-3-7,35.0,24.1,9.0,25.0,20.3,9.0,99,86,64,0.00,40.00,9,4,12,0.00
2013-3-8,40.0,29.9,19.0,32.0,26.5,19.0,99,88,68,0.00,40.00,15,8,21,0.00
2013-3-9,38.0,36.2,33.0,38.0,35.8,32.0,99,97,89,0.00,40.00,14,8,19,0.50
2013-3-10,44.0,39.8,35.0,44.0,39.8,35.0,99,99,99,0.00,40.00,15,6,23,0.72
2013-3-11,35.0,32.4,29.0,35.0,31.8,25.0,99,97,86,0.00,40.00,22,3,28,0.01
2013-3-12,35.0,28.4,25.0,31.0,24.7,19.0,96,86,70,0.00,40.00,22,15,33,0.04
2013-3-13,33.0,26.4,20.0,22.0,17.7,14.0,91,71,47,0.00,40.00,15,10,25,0.00
2013-3-14,40.0,30.4,21.0,31.0,26.7,20.0,99,86,64,0.00,40.00,16,6,21,0.01
2013-3-15,44.0,34.6,27.0,38.0,32.7,27.0,99,92,75,0.00,40.00,11,5,17,0.00
2013-3-16,37.0,32.7,29.0,34.0,29.5,24.0,99,88,66,0.00,40.00,14,8,18,0.00
2013-3-17,34.0,29.5,24.0,28.0,22.8,17.0,89,76,62,0.00,40.00,17,11,25,0.00
2013-3-18,35.0,28.2,18.0,35.0,26.2,13.0,99,91,76,0.00,40.00,29,14,40,0.25
2013-3-19,29.0,20.6,13.0,20.0,14.0,8.0,84,75,62,0.00,40.00,25,16,32,0.00
2013-3-20,23.0,17.0,11.0,18.0,9.2,4.0,82,71,59,0.00,40.00,24,16,35,0.00
2013-3-21,31.0,19.5,8.0,16.0,11.0,6.0,88,70,50,0.00,40.00,9,4,13,0.00
2013-3-22,40.0,27.8,15.0,23.0,18.4,12.0,94,69,48,0.00,40.00,8,4,11,0.00
2013-3-23,42.0,33.2,24.0,27.0,22.7,19.0,97,67,42,0.00,40.00,12,6,19,0.00
2013-3-24,33.0,29.8,28.0,32.0,29.5,26.0,99,98,75,0.00,40.00,18,11,25,0.47
2013-3-25,36.0,31.1,28.0,29.0,25.8,22.0,99,81,68,0.00,40.00,16,10,23,0.00
2013-3-26,38.0,33.1,26.0,28.0,26.3,24.0,94,76,58,0.00,40.00,15,7,21,0.00
2013-3-27,46.0,35.6,27.0,29.0,25.4,20.0,99,69,42,0.00,40.00,10,4,13,0.00
2013-3-28,52.0,38.9,24.0,35.0,27.8,23.0,99,67,40,0.00,40.00,8,3,11,0.00
2013-3-29,57.0,44.5,33.0,37.0,32.5,29.0,89,64,43,0.00,40.00,8,4,10,0.00
2013-3-30,55.0,44.7,35.0,46.0,38.4,-99.9,99,82,66,0.00,40.00,17,8,23,0.01
2013-3-31,51.0,42.0,32.0,45.0,36.4,26.0,99,82,49,0.00,40.00,21,11,29,0.00
2013-4-1,38.0,30.9,25.0,26.0,22.3,18.0,93,72,50,0.00,40.00,21,9,32,0.00
2013-4-2,42.0,30.6,19.0,28.0,20.9,15.0,99,71,37,0.00,40.00,17,7,26,0.00
2013-4-3,48.0,35.0,20.0,24.0,20.6,18.0,96,60,33,0.00,40.00,11,-2,16,0.00
2013-4-4,60.0,43.7,28.0,41.0,30.6,20.0,85,62,40,0.00,40.00,16,6,24,0.00
2013-4-5,55.0,43.6,30.0,37.0,30.3,27.0,99,63,36,0.00,40.00,17,8,26,0.01
2013-4-6,66.0,51.5,38.0,55.0,38.7,24.0,99,63,43,0.00,40.00,24,14,35,0.00
2013-4-7,63.0,49.7,36.0,49.0,42.3,36.0,99,78,48,0.00,40.00,17,7,24,0.00
2013-4-8,73.0,57.2,44.0,59.0,50.8,43.0,99,81,50,0.00,40.00,17,9,24,3.19
2013-4-9,60.0,50.0,41.0,60.0,49.9,41.0,99,99,95,0.00,40.00,21,13,30,0.71
2013-4-10,41.0,39.0,35.0,41.0,39.0,35.0,99,99,99,0.00,40.00,29,14,40,1.96
2013-4-11,47.0,40.5,36.0,47.0,40.5,36.0,99,99,97,0.00,40.00,22,12,31,0.05
2013-4-12,40.0,37.0,35.0,39.0,35.0,32.0,99,92,76,0.00,40.00,21,13,29,0.00
2013-4-13,47.0,38.8,33.0,36.0,32.1,27.0,97,77,57,0.00,40.00,21,11,26,0.00
2013-4-14,74.0,53.8,38.0,56.0,43.6,36.0,99,72,41,0.00,40.00,22,14,31,0.26
2013-4-15,62.0,49.1,40.0,53.0,44.5,35.0,99,86,40,0.00,40.00,20,8,28,0.08
2013-4-16,54.0,43.7,32.0,40.0,35.6,32.0,99,75,48,0.00,40.00,11,6,16,0.00
2013-4-17,49.0,43.7,40.0,47.0,41.8,37.0,99,93,69,0.00,40.00,26,13,34,3.49
2013-4-18,60.0,49.1,36.0,60.0,48.4,33.0,99,96,84,0.00,40.00,29,13,37,1.42
2013-4-19,38.0,35.3,33.0,34.0,30.3,28.0,94,82,68,0.00,40.00,29,20,39,0.00
2013-4-20,48.0,37.7,28.0,32.0,26.5,21.0,99,67,37,0.00,40.00,12,5,17,0.00
2013-4-21,58.0,46.0,37.0,41.0,33.2,26.0,74,61,50,0.00,40.00,19,11,28,0.00
2013-4-22,69.0,63.8,57.0,46.0,40.9,39.0,66,43,35,0.00,40.00,16,10,22,0.03
2013-4-23,56.0,41.6,37.0,50.0,39.8,33.0,99,93,71,0.00,40.00,18,9,23,0.49
2013-4-24,52.0,42.2,33.0,34.0,30.0,26.0,91,64,37,0.00,40.00,17,9,25,0.00
2013-4-25,54.0,43.9,33.0,40.0,28.8,22.0,99,59,29,0.00,40.00,22,4,32,0.08
2013-4-26,68.0,55.1,42.0,49.0,42.2,31.0,81,62,47,0.00,40.00,24,12,32,0.00
2013-4-27,65.0,56.5,45.0,51.0,46.7,45.0,99,72,50,0.00,40.00,14,4,19,0.00
2013-4-28,73.0,60.8,44.0,54.0,47.9,44.0,99,66,38,0.00,40.00,8,3,12,0.00
2013-4-29,79.0,65.4,50.0,61.0,55.4,50.0,99,72,49,0.00,40.00,18,9,22,0.00
2013-4-30,87.0,74.2,63.0,63.0,57.3,52.0,93,60,33,0.00,40.00,22,13,34,0.00
2013-5-1,85.0,70.5,54.0,60.0,55.9,47.0,89,62,36,0.00,40.00,23,9,29,0.00
2013-5-2,54.0,45.1,38.0,47.0,43.0,38.0,99,92,77,0.00,40.00,20,14,27,0.00
2013-5-3,50.0,40.3,36.0,50.0,40.3,36.0,99,99,99,0.00,40.00,18,11,26,3.84
2013-5-4,68.0,57.8,50.0,62.0,55.4,50.0,99,92,64,0.00,40.00,17,9,24,0.26
2013-5-5,74.0,61.1,51.0,60.0,51.7,47.0,99,75,42,0.00,40.00,12,6,16,0.00
2013-5-6,76.0,63.2,50.0,57.0,49.8,47.0,96,65,40,0.00,40.00,12,5,16,0.00
2013-5-7,78.0,64.5,53.0,54.0,51.0,49.0,97,66,36,0.00,40.00,9,3,14,0.00
2013-5-8,81.0,68.1,50.0,60.0,53.6,49.0,98,63,38,0.00,40.00,9,4,12,0.00
2013-5-9,70.0,63.1,60.0,65.0,61.9,60.0,99,95,75,0.00,40.00,12,5,17,0.25
2013-5-10,60.0,50.9,46.0,60.0,47.4,-99.9,99,93,82,0.00,40.00,17,9,23,0.00
2013-5-11,55.0,49.3,42.0,50.0,34.4,-99.9,99,62,37,0.00,40.00,23,13,37,0.01
2013-5-12,56.0,46.9,34.0,33.0,29.0,26.0,91,52,33,0.00,40.00,17,9,27,0.00
2013-5-13,69.0,54.4,34.0,43.0,36.7,33.0,99,57,30,0.00,40.00,12,4,17,0.00
2013-5-14,92.0,74.9,55.0,64.0,56.3,42.0,82,54,34,0.00,40.00,19,11,27,0.00
2013-5-15,82.0,71.9,61.0,60.0,53.9,50.0,66,53,37,0.00,40.00,19,8,26,0.04
2013-5-16,84.0,66.3,54.0,59.0,34.9,-99.9,95,57,33,0.00,40.00,11,4,17,0.00
2013-5-17,81.0,70.4,63.0,64.0,56.1,-99.9,98,70,51,0.00,40.00,14,6,23,0.00
2013-5-18,83.0,70.8,58.0,69.0,63.1,58.0,99,79,55,0.00,40.00,13,7,19,0.00
2013-5-19,86.0,72.3,64.0,75.0,65.8,56.0,99,81,46,0.00,40.00,30,2,44,0.17
2013-5-20,81.0,71.0,62.0,66.0,63.1,57.0,99,78,54,0.00,40.00,30,11,44,0.03
2013-5-21,75.0,68.1,61.0,66.0,60.5,56.0,99,78,55,0.00,40.00,17,10,26,0.00
2013-5-22,68.0,60.9,56.0,60.0,57.8,55.0,99,90,65,0.00,40.00,17,7,23,0.01
2013-5-23,67.0,58.4,51.0,57.0,50.9,41.0,99,78,48,0.00,40.00,16,10,27,0.32
2013-5-24,69.0,55.5,41.0,46.0,40.2,37.0,99,60,32,0.00,40.00,9,5,14,0.00
2013-5-25,58.0,50.7,47.0,52.0,48.4,42.0,99,92,55,0.00,40.00,13,8,19,0.65
2013-5-26,55.0,53.4,48.0,55.0,53.4,48.0,99,99,97,0.00,40.00,16,10,26,0.29
2013-5-27,69.0,60.9,55.0,67.0,60.7,55.0,99,98,92,0.00,40.00,14,9,22,0.06
2013-5-28,81.0,68.7,60.0,76.0,67.8,60.0,99,96,83,0.00,40.00,17,8,24,0.20
2013-5-29,84.0,72.9,61.0,73.0,67.2,61.0,99,83,64,0.00,40.00,15,8,24,0.01
2013-5-30,82.0,74.2,69.0,73.0,69.6,67.0,99,85,69,0.00,40.00,24,13,47,0.00
2013-6-1,76.0,69.2,62.0,68.0,60.7,56.0,99,75,54,0.00,40.00,16,10,27,0.00
2013-6-2,63.0,58.2,49.0,62.0,51.5,45.0,99,79,57,0.00,40.00,16,8,22,0.00
2013-6-3,72.0,61.0,48.0,56.0,49.3,46.0,99,69,44,0.00,40.00,8,4,14,0.00
2013-6-4,71.0,63.0,51.0,53.0,51.4,49.0,99,67,48,0.00,40.00,22,6,29,0.02
2013-6-5,65.0,61.6,58.0,62.0,57.0,50.0,99,85,67,0.00,40.00,12,6,18,0.36
2013-6-6,65.0,59.5,56.0,60.0,57.6,56.0,99,93,77,0.00,40.00,9,4,13,0.00
2013-6-7,73.0,62.5,56.0,58.0,55.3,51.0,99,79,52,0.00,40.00,11,5,15,0.00
2013-6-8,76.0,66.9,55.0,57.0,55.1,52.0,96,67,50,0.00,40.00,9,5,13,0.00
2013-6-9,74.0,65.8,61.0,68.0,61.3,54.0,99,86,68,0.00,40.00,14,8,21,0.01
2013-6-10,76.0,65.9,58.0,66.0,61.9,58.0,99,88,59,0.00,40.00,13,4,19,0.00
2013-6-11,87.0,72.8,59.0,72.0,66.2,59.0,99,81,57,0.00,40.00,9,4,13,0.00
2013-6-12,90.0,77.3,69.0,75.0,71.6,68.0,100,84,58,0.00,40.00,30,10,38,3.39
2013-6-13,81.0,71.2,60.0,68.0,60.0,55.0,100,71,43,0.00,40.00,17,8,24,0.13
2013-6-14,78.0,68.8,58.0,62.0,58.8,56.0,97,71,54,0.00,40.00,11,6,17,0.00
2013-6-15,82.0,72.6,65.0,74.0,67.7,60.0,98,85,63,0.00,40.00,22,7,37,0.00
2013-6-16,86.0,74.8,65.0,71.0,62.5,53.0,100,70,36,0.00,40.00,12,6,19,0.00
2013-6-17,88.0,75.1,58.0,65.0,58.7,54.0,100,61,35,0.00,40.00,11,5,19,0.00
2013-6-18,80.0,70.4,59.0,63.0,59.8,56.0,94,70,51,0.00,40.00,15,8,19,0.00
2013-6-19,86.0,70.8,55.0,64.0,57.9,51.0,88,65,44,0.00,40.00,10,4,14,0.00
2013-6-20,90.0,74.4,62.0,66.0,63.3,61.0,95,71,44,0.00,40.00,14,6,18,0.00
2013-6-22,91.0,83.0,71.0,79.0,74.3,69.0,97,75,58,0.00,40.00,16,11,23,0.00
2013-6-23,74.0,71.1,68.0,72.0,69.7,68.0,100,95,85,0.00,40.00,14,6,17,0.00
2013-6-24,73.0,67.4,65.0,72.0,67.3,65.0,100,99,97,0.00,40.00,27,6,37,0.18
2013-6-25,87.0,76.0,67.0,78.0,73.4,67.0,100,92,73,0.00,40.00,16,6,21,0.01
2013-6-26,87.0,77.6,67.0,77.0,72.5,67.0,100,85,59,0.00,40.00,15,5,26,0.15
2013-6-27,87.0,77.8,68.0,75.0,69.8,62.0,100,78,51,0.00,40.00,23,8,30,0.00
2013-6-28,80.0,72.7,62.0,65.0,62.8,60.0,100,73,53,0.00,40.00,21,9,34,0.00
2013-6-29,75.0,65.9,62.0,69.0,65.0,62.0,100,96,78,0.00,40.00,17,7,22,0.24
2013-6-30,80.0,69.2,62.0,63.0,60.5,56.0,99,75,50,0.00,40.00,14,9,21,0.00
2013-7-1,80.0,68.7,55.0,58.0,55.5,54.0,96,65,42,0.00,40.00,16,9,22,0.00
2013-7-2,81.0,68.5,56.0,61.0,57.2,53.0,99,70,48,0.00,40.00,12,6,18,0.00
2013-7-3,77.0,65.7,52.0,61.0,56.4,52.0,100,74,49,0.00,40.00,6,3,12,0.00
2013-7-4,87.0,72.9,57.0,68.0,62.0,57.0,100,72,43,0.00,40.00,9,4,13,0.00
2013-7-5,87.0,76.0,64.0,68.0,64.9,62.0,99,70,49,0.00,40.00,12,6,16,0.00
2013-7-6,89.0,76.1,64.0,71.0,67.2,64.0,99,76,48,0.00,40.00,11,5,14,0.00
2013-7-7,92.0,79.6,68.0,75.0,71.6,68.0,100,78,54,0.00,40.00,11,6,17,0.00
2013-7-8,89.0,78.4,71.0,78.0,72.6,-99.9,99,86,69,0.00,40.00,16,8,21,0.31
2013-7-9,88.0,78.6,72.0,81.0,76.6,72.0,100,93,72,0.00,40.00,14,5,19,0.99
2013-7-10,81.0,74.2,62.0,78.0,64.2,-99.9,100,76,52,0.00,40.00,15,6,22,0.00
2013-7-11,82.0,71.0,60.0,65.0,59.9,57.0,99,71,46,0.00,40.00,10,4,14,0.00
2013-7-12,85.0,72.3,57.0,65.0,59.7,56.0,100,69,40,0.00,40.00,9,4,14,0.00
2013-7-13,85.0,72.3,58.0,66.0,62.8,58.0,99,74,52,0.00,40.00,10,4,14,0.00
2013-7-14,88.0,76.9,64.0,74.0,68.4,63.0,99,77,55,0.00,40.00,10,6,17,0.00
2013-7-15,92.0,81.7,70.0,77.0,74.0,70.0,100,79,56,0.00,40.00,10,5,16,0.00
2013-7-16,94.0,83.6,73.0,79.0,76.0,73.0,100,80,55,0.00,40.00,7,4,12,0.00
2013-7-17,96.0,83.7,72.0,79.0,75.6,72.0,100,79,51,0.00,40.00,9,3,11,0.00
2013-7-18,96.0,84.0,72.0,78.0,75.2,72.0,100,77,51,0.00,40.00,11,5,17,0.00
2013-7-19,94.0,84.4,74.0,77.0,75.0,73.0,97,75,53,0.00,40.00,19,10,26,0.00
2013-7-20,89.0,77.1,62.0,69.0,62.7,-99.9,100,65,46,0.00,40.00,9,3,12,0.00
2013-7-21,85.0,73.9,63.0,74.0,68.8,63.0,100,85,61,0.00,40.00,10,4,14,0.01
2013-7-22,89.0,76.9,63.0,78.0,70.6,63.0,100,82,58,0.00,40.00,12,5,17,0.13
2013-7-23,78.0,69.0,62.0,68.0,61.8,57.0,99,80,51,0.00,40.00,12,7,19,0.00
2013-7-24,78.0,67.4,56.0,62.0,57.7,54.0,99,74,47,0.00,40.00,9,3,12,0.00
2013-7-25,83.0,70.5,56.0,65.0,61.4,56.0,100,75,51,0.00,40.00,13,4,16,0.00
2013-7-26,80.0,67.2,58.0,73.0,64.0,56.0,100,90,53,0.00,40.00,16,7,24,0.22
2013-7-27,63.0,57.3,51.0,58.0,52.1,47.0,100,84,59,0.00,40.00,13,7,21,0.00
2013-7-28,70.0,59.6,53.0,56.0,53.2,50.0,100,81,53,0.00,40.00,12,6,20,0.00
2013-7-29,80.0,64.8,47.0,61.0,55.1,47.0,100,74,44,0.00,40.00,6,3,10,0.00
2013-7-30,66.0,63.9,61.0,65.0,62.8,59.0,100,95,83,0.00,40.00,9,5,16,0.23
2013-7-31,79.0,69.5,63.0,69.0,65.5,63.0,100,88,66,0.00,40.00,11,5,15,0.00
2013-8-1,82.0,68.6,55.0,66.0,59.7,55.0,100,77,43,0.00,40.00,10,4,15,0.00
2013-8-2,70.0,68.0,66.0,68.0,66.6,65.0,100,94,85,0.00,40.00,8,6,12,0.00
2013-8-17,81.0,73.4,74.0,62.0,46.6,-99.9,65,45,43,0.00,40.00,9,5,13,0.00
2013-8-18,83.0,71.9,54.0,63.0,59.1,54.0,99,68,45,0.00,40.00,6,3,12,0.00
2013-8-19,85.0,60.2,58.0,68.0,31.1,-99.9,99,73,52,0.00,40.00,12,6,16,0.00
2013-8-20,88.0,72.7,65.0,70.0,58.5,-99.9,99,75,50,0.00,40.00,12,6,18,0.00
2013-8-21,90.0,79.5,68.0,72.0,70.7,68.0,99,76,56,0.00,40.00,13,8,19,0.00
2013-8-22,75.0,71.8,69.0,72.0,70.8,69.0,100,96,86,0.00,40.00,12,7,17,0.13
2013-8-23,83.0,69.5,60.0,72.0,64.7,60.0,100,86,53,0.00,40.00,15,5,17,0.00
2013-8-26,93.0,81.2,67.0,76.0,72.3,67.0,99,76,58,0.00,40.00,11,6,15,0.00
2013-8-27,95.0,81.4,71.0,76.0,73.5,71.0,100,79,51,0.00,40.00,17,10,23,0.00
2013-8-28,92.0,90.4,89.0,80.0,80.0,75.0,75,72,69,0.00,40.00,7,5,12,0.00
2013-8-29,88.0,76.4,71.0,76.0,73.1,71.0,100,90,64,0.00,40.00,9,6,13,0.00
2013-8-30,98.0,83.6,71.0,79.0,74.0,70.0,99,77,42,0.00,40.00,12,6,17,0.00
2013-8-31,85.0,72.7,70.0,73.0,65.2,-99.9,100,85,63,0.00,40.00,11,8,17,0.00
2013-9-1,88.0,73.8,65.0,76.0,69.1,65.0,100,87,47,0.00,40.00,11,5,16,0.00
2013-9-2,75.0,66.5,59.0,63.0,59.2,55.0,100,79,50,0.00,40.00,11,6,17,0.00
2013-9-3,78.0,60.9,47.0,58.0,53.3,47.0,100,79,46,0.00,40.00,6,2,9,0.00
2013-9-4,85.0,60.5,49.0,60.0,53.7,49.0,100,83,41,0.00,40.00,7,2,12,0.00
2013-9-5,84.0,71.3,63.0,70.0,66.0,63.0,100,84,62,0.00,40.00,11,4,17,0.00
2013-9-6,88.0,70.4,59.0,65.0,60.3,55.0,90,73,45,0.00,40.00,11,6,17,0.00
2013-9-7,93.0,77.0,65.0,71.0,60.4,-99.9,98,64,47,0.00,40.00,13,7,20,0.00
2013-9-8,83.0,75.5,70.0,73.0,71.5,70.0,99,88,70,0.00,40.00,15,11,21,0.00
2013-9-9,98.0,74.1,68.0,76.0,70.3,67.0,100,90,44,0.00,40.00,10,6,12,0.00
2013-9-10,96.0,81.7,70.0,69.0,66.6,64.0,85,62,39,0.00,40.00,18,9,26,0.00
2013-9-11,83.0,76.2,68.0,71.0,68.3,66.0,99,77,60,0.00,40.00,9,5,13,0.00
2013-11-7,42.0,35.0,30.0,32.0,31.0,29.0,94,85,69,0.00,40.00,9,6,12,0.00
2013-11-8,49.0,36.5,24.0,35.0,29.2,24.0,100,78,48,0.00,40.00,19,8,32,0.00
2013-11-9,54.0,45.3,39.0,40.0,33.6,-99.9,89,70,58,0.00,40.00,22,14,31,0.00
2013-11-10,48.0,41.1,27.0,35.0,32.3,27.0,99,71,54,0.00,40.00,14,7,20,0.00
2013-11-11,45.0,35.2,21.0,37.0,30.2,17.0,99,82,69,0.00,40.00,15,9,24,0.04
2013-11-12,28.0,19.4,14.0,21.0,15.8,13.0,96,85,67,0.00,40.00,11,6,16,0.00
2013-11-13,43.0,29.0,16.0,22.0,17.6,15.0,96,67,37,0.00,40.00,16,9,24,0.00
2013-11-14,51.0,40.4,33.0,31.0,26.4,19.0,67,57,44,0.00,40.00,17,9,23,0.00
2013-11-15,54.0,41.9,33.0,38.0,32.8,26.0,91,71,48,0.00,40.00,12,6,16,0.00
2013-11-16,60.0,50.0,39.0,58.0,45.5,-99.9,100,92,87,0.00,40.00,23,13,42,0.01
2013-11-17,61.0,50.8,40.0,61.0,50.1,38.0,99,96,85,0.00,40.00,26,13,35,0.02
2013-11-18,43.0,35.1,26.0,37.0,29.8,25.0,98,82,55,0.00,40.00,21,11,29,0.00
2013-11-19,42.0,34.7,22.0,31.0,27.4,22.0,100,76,56,0.00,40.00,12,7,16,0.00
2013-11-20,39.0,35.1,33.0,38.0,33.3,31.0,100,92,74,0.00,40.00,12,8,21,0.21
2013-11-21,41.0,39.3,38.0,41.0,39.3,38.0,100,99,99,0.00,40.00,7,5,14,0.00
2013-11-22,38.0,30.4,20.0,38.0,27.7,20.0,99,90,74,0.00,40.00,12,8,19,0.06
2013-11-23,22.0,17.0,8.0,19.0,9.6,-99.9,99,80,51,0.00,40.00,16,9,27,0.00
2013-11-24,29.0,15.9,6.0,12.0,7.5,5.0,98,73,38,0.00,40.00,12,6,16,0.00
2013-11-25,34.0,27.7,20.0,30.0,22.7,12.0,99,81,69,0.00,40.00,15,9,22,0.16
2013-11-26,31.0,24.5,12.0,28.0,19.3,7.0,100,81,55,0.00,40.00,19,-16,28,0.00
2013-11-27,26.0,16.0,8.0,14.0,9.6,6.0,90,76,53,0.00,40.00,9,6,14,0.00
2013-11-28,33.0,23.7,17.0,19.0,16.4,13.0,99,74,57,0.00,40.00,9,6,17,0.00
2013-11-29,36.0,25.2,11.0,26.0,18.0,11.0,100,76,52,0.00,40.00,9,5,14,0.00
2013-11-30,50.0,33.2,25.0,34.0,24.8,-99.9,99,79,52,0.00,40.00,11,5,14,0.00
2013-12-1,44.0,34.5,24.0,33.0,29.7,24.0,100,83,58,0.00,40.00,10,4,13,0.00
2013-12-2,42.0,35.9,31.0,37.0,33.9,31.0,99,92,77,0.00,40.00,14,7,20,0.01
2013-12-3,44.0,40.6,36.0,44.0,40.6,36.0,100,99,99,0.00,40.00,10,6,13,0.00
2013-12-4,50.0,42.2,27.0,50.0,42.1,26.0,100,99,96,0.00,40.00,22,9,29,0.01
2013-12-5,26.0,18.5,15.0,24.0,13.0,9.0,94,78,65,0.00,40.00,24,16,31,0.00
2013-12-6,15.0,10.2,6.0,8.0,4.8,3.0,87,78,60,0.00,40.00,13,8,19,0.00
2013-12-7,16.0,7.2,0.0,4.0,-2.4,-99.9,90,74,52,0.00,40.00,7,5,11,0.00
2013-12-12,20.0,8.8,-7.0,13.0,4.2,-9.0,96,81,67,0.00,40.00,12,5,19,0.00
2013-12-13,27.0,21.0,9.0,26.0,18.3,9.0,99,89,77,0.00,40.00,15,9,20,0.00
2013-12-14,26.0,21.5,15.0,25.0,16.9,-99.9,100,92,88,0.00,40.00,17,11,25,0.02
2013-12-15,13.0,11.2,7.0,11.0,6.8,4.0,92,82,74,0.00,40.00,15,8,21,0.19
2013-12-16,20.0,14.5,11.0,20.0,12.5,9.0,100,91,82,0.00,40.00,10,6,14,0.00
2013-12-17,33.0,22.1,15.0,26.0,19.1,13.0,100,88,65,0.00,40.00,20,11,30,0.00
2013-12-18,40.0,24.4,10.0,31.0,18.9,9.0,98,81,44,0.00,40.00,15,6,23,0.00
2013-12-19,35.0,31.2,26.0,33.0,30.5,26.0,99,96,89,0.00,40.00,13,6,19,0.14
2013-12-20,32.0,27.5,25.0,32.0,27.5,25.0,100,99,99,0.00,40.00,15,9,21,0.12
2013-12-21,28.0,25.2,25.0,28.0,21.3,-99.9,100,95,99,0.00,40.00,14,7,20,0.06
2013-12-22,28.0,23.8,13.0,28.0,23.0,12.0,100,96,89,0.00,40.00,17,12,21,2.88
2013-12-23,12.0,-1.3,-9.0,11.0,-4.6,-11.0,95,85,78,0.00,40.00,16,11,22,0.00
2013-12-24,15.0,-4.7,-16.0,13.0,-7.9,-18.0,93,86,67,0.00,40.00,7,4,12,0.01
2013-12-25,25.0,21.6,17.0,24.0,20.5,13.0,100,95,82,0.00,40.00,13,10,16,0.04
2013-12-26,35.0,22.5,11.0,27.0,19.4,10.0,99,88,69,0.00,40.00,9,5,17,0.00
2013-12-27,38.0,28.5,15.0,31.0,24.3,15.0,100,85,67,0.00,40.00,14,6,19,0.00